Time;durP1;ratioP1;P1;durP2;ratioP2;P2;SDS_P1;SDS_P2;PMS_P1;PMS_P2;Temp;Humidity;BMP_temperature;BMP_pressure;BME280_temperature;BME280_humidity;BME280_pressure;Samples;Min_cycle;Max_cycle;Signal;HPM_P1;HPM_P2
2021/01/02 00:04:51;;;;;;;13.40;12.07;;;;;;;;;;10590927;28;20054;-91
2021/01/02 00:09:54;;;;;;;12.10;11.00;;;;;;;;;;10588948;28;20039;-91
2021/01/02 00:14:59;;;;;;;11.07;10.07;;;;;;;;;;10590493;28;20066;-89
2021/01/02 00:20:03;;;;;;;16.17;14.73;;;;;;;;;;10589231;28;20062;-90
2021/01/02 00:25:05;;;;;;;16.40;14.88;;;;;;;;;;10590287;28;20034;-90
2021/01/02 00:30:10;;;;;;;13.15;11.95;;;;;;;;;;10589477;28;20035;-90
2021/01/02 00:35:18;;;;;;;13.90;12.63;;;;;;;;;;10587780;28;20081;-89
2021/01/02 00:40:20;;;;;;;13.27;12.02;;;;;;;;;;10587578;28;20028;-89
2021/01/02 00:45:26;;;;;;;12.18;11.07;;;;;;;;;;10588150;28;20447;-89
2021/01/02 00:50:28;;;;;;;11.73;10.65;;;;;;;;;;10589344;28;20032;-91
2021/01/02 00:55:38;;;;;;;15.57;14.15;;;;;;;;;;10616803;27;20027;-90
2021/01/02 01:00:40;;;;;;;12.45;11.25;;;;;;;;;;10618822;27;20035;-89
2021/01/02 01:05:46;;;;;;;10.32;9.32;;;;;;;;;;10606651;27;20035;-90
2021/01/02 01:10:47;;;;;;;11.57;10.48;;;;;;;;;;10587587;28;20122;-91
2021/01/02 01:15:48;;;;;;;13.05;11.93;;;;;;;;;;10586226;28;20405;-90
2021/01/02 01:20:56;;;;;;;12.43;11.30;;;;;;;;;;10585891;28;20027;-89
2021/01/02 01:26:09;;;;;;;12.63;11.43;;;;;;;;;;10586411;28;20393;-90
2021/01/02 01:31:10;;;;;;;14.63;13.35;;;;;;;;;;10585412;28;20405;-90
2021/01/02 01:36:11;;;;;;;15.15;13.77;;;;;;;;;;10584274;28;20069;-90
2021/01/02 01:41:14;;;;;;;13.68;12.45;;;;;;;;;;10585022;28;20020;-90
2021/01/02 01:46:16;;;;;;;14.82;13.50;;;;;;;;;;10584488;28;20474;-89
2021/01/02 01:51:30;;;;;;;10.57;9.60;;;;;;;;;;10584884;28;20034;-90
2021/01/02 01:56:31;;;;;;;12.93;11.73;;;;;;;;;;10584721;28;20039;-91
2021/01/02 02:01:38;;;;;;;10.18;9.18;;;;;;;;;;10583009;28;20436;-90
2021/01/02 02:06:44;;;;;;;15.18;13.75;;;;;;;;;;10585526;28;20047;-89
2021/01/02 02:11:49;;;;;;;16.33;14.73;;;;;;;;;;10584097;28;20122;-90
2021/01/02 02:16:57;;;;;;;16.38;14.80;;;;;;;;;;10584128;28;20404;-89
2021/01/02 02:22:03;;;;;;;16.00;14.50;;;;;;;;;;10583798;28;20553;-90
2021/01/02 02:27:04;;;;;;;17.30;15.50;;;;;;;;;;10583722;28;20047;-90
2021/01/02 02:32:07;;;;;;;14.38;12.98;;;;;;;;;;10586105;28;20111;-90
2021/01/02 02:37:08;;;;;;;14.10;12.80;;;;;;;;;;10584190;28;20035;-91
2021/01/02 02:42:10;;;;;;;16.48;14.90;;;;;;;;;;10582863;28;20031;-89
2021/01/02 02:47:14;;;;;;;11.68;10.57;;;;;;;;;;10581733;28;20489;-90
2021/01/02 02:52:20;;;;;;;20.77;18.88;;;;;;;;;;10581940;28;20036;-89
2021/01/02 02:57:21;;;;;;;14.10;12.80;;;;;;;;;;10582594;28;20470;-90
2021/01/02 03:02:22;;;;;;;13.10;11.85;;;;;;;;;;10586547;28;20097;-89
2021/01/02 03:07:23;;;;;;;13.75;12.45;;;;;;;;;;10582197;28;20096;-89
2021/01/02 03:12:24;;;;;;;18.92;17.10;;;;;;;;;;10582421;28;20122;-90
2021/01/02 03:17:25;;;;;;;17.10;15.40;;;;;;;;;;10590884;28;20492;-89
2021/01/02 03:22:26;;;;;;;17.75;16.08;;;;;;;;;;10592170;28;20184;-90
2021/01/02 03:27:28;;;;;;;17.40;15.75;;;;;;;;;;10591181;28;20492;-91
2021/01/02 03:32:29;;;;;;;16.48;14.80;;;;;;;;;;10593787;28;20088;-91
2021/01/02 03:37:30;;;;;;;14.18;12.82;;;;;;;;;;10616441;27;20093;-88
2021/01/02 03:42:31;;;;;;;13.65;12.23;;;;;;;;;;10622672;27;20179;-88
2021/01/02 03:47:32;;;;;;;14.02;12.63;;;;;;;;;;10603829;28;20093;-90
2021/01/02 03:52:36;;;;;;;15.70;14.18;;;;;;;;;;10589662;28;20092;-90
2021/01/02 03:57:37;;;;;;;12.43;11.20;;;;;;;;;;10590200;28;20043;-90
2021/01/02 04:02:38;;;;;;;14.95;13.48;;;;;;;;;;10589282;28;20039;-91
2021/01/02 04:07:39;;;;;;;9.32;8.43;;;;;;;;;;10589253;28;20447;-90
2021/01/02 04:12:40;;;;;;;11.50;10.30;;;;;;;;;;10590510;28;20068;-90
2021/01/02 04:17:41;;;;;;;8.77;7.88;;;;;;;;;;10589323;28;20103;-89
2021/01/02 04:22:43;;;;;;;10.13;8.93;;;;;;;;;;10589645;28;20077;-89
2021/01/02 04:27:44;;;;;;;8.02;7.20;;;;;;;;;;10587150;28;20383;-90
2021/01/02 04:32:49;;;;;;;8.23;7.45;;;;;;;;;;10586989;28;20035;-90
2021/01/02 04:37:50;;;;;;;7.00;6.30;;;;;;;;;;10588036;28;20028;-90
2021/01/02 04:42:51;;;;;;;9.30;8.40;;;;;;;;;;10594706;28;20024;-91
2021/01/02 04:47:53;;;;;;;10.77;9.77;;;;;;;;;;10587648;28;20071;-90
2021/01/02 04:52:59;;;;;;;9.50;8.60;;;;;;;;;;10588465;28;20418;-90
2021/01/02 04:58:05;;;;;;;8.60;7.80;;;;;;;;;;10589072;28;20044;-89
2021/01/02 05:03:06;;;;;;;9.52;8.52;;;;;;;;;;10587685;28;20027;-90
2021/01/02 05:08:07;;;;;;;8.95;8.15;;;;;;;;;;10587005;28;20126;-90
2021/01/02 05:13:09;;;;;;;9.82;8.88;;;;;;;;;;10586770;28;20032;-90
2021/01/02 05:18:13;;;;;;;9.88;8.95;;;;;;;;;;10582191;28;20032;-89
2021/01/02 05:23:15;;;;;;;11.18;10.07;;;;;;;;;;10576849;28;20112;-91
2021/01/02 05:28:17;;;;;;;12.90;11.10;;;;;;;;;;10575062;28;20127;-91
2021/01/02 05:33:18;;;;;;;10.23;9.32;;;;;;;;;;10576355;28;20036;-89
2021/01/02 05:38:19;;;;;;;10.57;9.48;;;;;;;;;;10573761;28;20060;-89
2021/01/02 05:43:21;;;;;;;12.75;11.45;;;;;;;;;;10574355;28;20099;-90
2021/01/02 05:48:24;;;;;;;8.20;7.40;;;;;;;;;;10595580;28;20066;-91
2021/01/02 05:53:29;;;;;;;9.30;8.40;;;;;;;;;;10603294;28;20032;-90
2021/01/02 05:58:31;;;;;;;9.38;8.45;;;;;;;;;;10601930;27;20051;-88
2021/01/02 06:03:32;;;;;;;9.38;8.48;;;;;;;;;;10613631;28;20019;-90
2021/01/02 06:08:34;;;;;;;12.35;11.05;;;;;;;;;;10601360;28;20058;-90
2021/01/02 06:13:37;;;;;;;11.60;10.55;;;;;;;;;;10576984;28;20040;-89
2021/01/02 06:18:48;;;;;;;8.13;7.32;;;;;;;;;;10575020;28;20039;-89
2021/01/02 06:23:49;;;;;;;13.82;12.48;;;;;;;;;;10576638;28;20035;-89
2021/01/02 06:28:50;;;;;;;10.55;9.50;;;;;;;;;;10575367;28;20462;-89
2021/01/02 06:33:51;;;;;;;26.48;23.77;;;;;;;;;;10574531;28;20418;-90
2021/01/02 06:39:12;;;;;;;10.30;9.30;;;;;;;;;;10575606;28;20039;-89
2021/01/02 06:44:32;;;;;;;10.38;9.35;;;;;;;;;;10572786;28;20039;-89
2021/01/02 06:49:33;;;;;;;17.38;15.68;;;;;;;;;;10572885;28;20040;-90
2021/01/02 06:54:34;;;;;;;10.98;9.63;;;;;;;;;;10572169;28;20189;-89
2021/01/02 06:59:35;;;;;;;14.68;13.15;;;;;;;;;;10571261;28;20031;-89
2021/01/02 07:04:38;;;;;;;13.23;11.93;;;;;;;;;;10573948;28;20055;-89
2021/01/02 07:09:41;;;;;;;15.65;14.05;;;;;;;;;;10572625;28;20055;-90
2021/01/02 07:14:43;;;;;;;11.20;10.10;;;;;;;;;;10573228;28;20039;-88
2021/01/02 07:19:45;;;;;;;12.80;11.57;;;;;;;;;;10572272;28;20032;-89
2021/01/02 07:24:50;;;;;;;10.75;9.65;;;;;;;;;;10572273;28;20028;-89
2021/01/02 07:29:52;;;;;;;12.43;11.23;;;;;;;;;;10572233;28;20116;-89
2021/01/02 07:34:54;;;;;;;11.82;10.70;;;;;;;;;;10574963;28;20036;-90
2021/01/02 07:40:00;;;;;;;16.08;14.23;;;;;;;;;;10601087;28;20031;-90
2021/01/02 07:45:03;;;;;;;15.32;13.77;;;;;;;;;;10605766;28;20032;-87
2021/01/02 07:50:06;;;;;;;12.90;11.60;;;;;;;;;;10610547;27;20034;-88
2021/01/02 07:55:08;;;;;;;14.02;12.63;;;;;;;;;;10614624;27;20036;-90
2021/01/02 08:00:10;;;;;;;12.57;11.27;;;;;;;;;;10602799;28;20063;-89
2021/01/02 08:05:15;;;;;;;16.58;14.50;;;;;;;;;;10603261;28;20062;-89
2021/01/02 08:10:16;;;;;;;5.45;4.85;;;;;;;;;;10601902;28;20042;-86
2021/01/02 08:15:37;;;;;;;12.07;10.70;;;;;;;;;;10591811;28;20042;-87
2021/01/02 08:20:39;;;;;;;13.68;12.25;;;;;;;;;;10587519;28;20039;-87
2021/01/02 08:25:40;;;;;;;10.88;9.75;;;;;;;;;;10581323;28;20035;-88
2021/01/02 08:30:41;;;;;;;10.65;9.55;;;;;;;;;;10584106;28;20535;-88
2021/01/02 08:35:45;;;;;;;20.10;17.95;;;;;;;;;;10584913;28;20398;-87
2021/01/02 08:40:50;;;;;;;11.35;10.15;;;;;;;;;;10585890;28;20039;-87
2021/01/02 08:45:59;;;;;;;13.65;12.25;;;;;;;;;;10588120;28;20031;-87
2021/01/02 08:51:00;;;;;;;11.48;10.23;;;;;;;;;;10594609;28;20063;-86
2021/01/02 08:56:21;;;;;;;15.57;13.35;;;;;;;;;;10581632;27;20058;-87
2021/01/02 09:01:22;;;;;;;22.65;20.25;;;;;;;;;;10581347;28;20039;-86
2021/01/02 09:06:26;;;;;;;13.82;12.40;;;;;;;;;;10585304;28;20043;-86
2021/01/02 09:11:28;;;;;;;9.68;8.05;;;;;;;;;;10585607;28;20038;-85
2021/01/02 09:16:29;;;;;;;14.40;12.85;;;;;;;;;;10581072;28;20043;-87
2021/01/02 09:21:30;;;;;;;14.23;12.43;;;;;;;;;;10578065;28;20080;-87
2021/01/02 09:26:33;;;;;;;13.13;11.77;;;;;;;;;;10576752;28;20033;-88
2021/01/02 09:31:37;;;;;;;13.27;10.93;;;;;;;;;;10576141;28;20027;-90
2021/01/02 09:36:38;;;;;;;14.45;12.93;;;;;;;;;;10577806;28;20077;-88
2021/01/02 09:41:39;;;;;;;15.75;14.13;;;;;;;;;;10582012;28;20069;-88
2021/01/02 09:46:40;;;;;;;21.30;19.10;;;;;;;;;;10578167;28;20067;-87
2021/01/02 09:51:41;;;;;;;14.30;12.80;;;;;;;;;;10577289;28;20112;-88
2021/01/02 09:56:45;;;;;;;18.63;16.65;;;;;;;;;;10575734;28;20054;-87
2021/01/02 10:01:51;;;;;;;19.38;17.38;;;;;;;;;;10574272;28;20027;-86
2021/01/02 10:06:52;;;;;;;19.27;17.25;;;;;;;;;;10576255;28;20042;-87
2021/01/02 10:11:55;;;;;;;13.18;11.27;;;;;;;;;;10577651;28;20032;-87
2021/01/02 10:16:56;;;;;;;19.63;17.17;;;;;;;;;;10576450;28;20042;-86
2021/01/02 10:21:58;;;;;;;9.65;8.65;;;;;;;;;;10579652;28;20385;-88
2021/01/02 10:26:59;;;;;;;17.65;15.50;;;;;;;;;;10585247;28;20127;-84
2021/01/02 10:32:03;;;;;;;10.82;9.05;;;;;;;;;;10581776;28;20028;-86
2021/01/02 10:37:04;;;;;;;12.95;11.40;;;;;;;;;;10583123;28;20024;-84
2021/01/02 10:42:06;;;;;;;13.50;11.65;;;;;;;;;;10583472;28;20028;-84
2021/01/02 10:47:07;;;;;;;14.55;11.90;;;;;;;;;;10581733;28;20031;-84
2021/01/02 10:52:08;;;;;;;14.85;12.02;;;;;;;;;;10582201;28;20035;-84
2021/01/02 10:57:09;;;;;;;16.27;14.02;;;;;;;;;;10602673;28;20039;-86
2021/01/02 11:02:10;;;;;;;14.48;12.98;;;;;;;;;;10586243;28;20241;-87
2021/01/02 11:07:12;;;;;;;15.32;12.38;;;;;;;;;;10594891;27;20058;-84
2021/01/02 11:12:13;;;;;;;14.88;13.25;;;;;;;;;;10606894;28;20028;-83
2021/01/02 11:17:14;;;;;;;13.65;11.50;;;;;;;;;;10593167;28;20454;-86
2021/01/02 11:22:15;;;;;;;12.98;11.57;;;;;;;;;;10582919;28;20031;-86
2021/01/02 11:27:18;;;;;;;18.83;16.92;;;;;;;;;;10588389;28;20044;-86
2021/01/02 11:32:19;;;;;;;11.43;9.75;;;;;;;;;;10583521;28;20041;-85
2021/01/02 11:37:20;;;;;;;17.15;15.40;;;;;;;;;;10588057;28;20039;-85
2021/01/02 11:42:21;;;;;;;18.83;16.92;;;;;;;;;;10595205;28;20028;-86
2021/01/02 11:47:22;;;;;;;8.73;7.68;;;;;;;;;;10592764;28;20042;-85
2021/01/02 11:52:23;;;;;;;11.18;9.93;;;;;;;;;;10592871;28;20107;-87
2021/01/02 11:57:24;;;;;;;10.15;9.15;;;;;;;;;;10606552;27;20104;-88
2021/01/02 12:02:25;;;;;;;15.90;14.10;;;;;;;;;;10622596;27;20030;-85
2021/01/02 12:07:26;;;;;;;12.00;10.70;;;;;;;;;;10634513;27;20047;-86
2021/01/02 12:12:27;;;;;;;17.48;15.68;;;;;;;;;;10586114;28;20038;-87
2021/01/02 12:17:29;;;;;;;12.10;10.82;;;;;;;;;;10587016;28;20032;-87
2021/01/02 12:22:30;;;;;;;14.48;13.02;;;;;;;;;;10606632;28;20362;-87
2021/01/02 12:27:31;;;;;;;13.52;12.13;;;;;;;;;;10587760;28;20126;-87
2021/01/02 12:32:32;;;;;;;13.70;12.20;;;;;;;;;;10586673;28;20032;-87
2021/01/02 12:37:33;;;;;;;14.95;13.35;;;;;;;;;;10591293;28;20046;-87
2021/01/02 12:42:38;;;;;;;10.73;9.32;;;;;;;;;;10587921;28;20031;-87
2021/01/02 12:47:39;;;;;;;9.05;7.20;;;;;;;;;;10584974;28;20059;-85
2021/01/02 12:52:40;;;;;;;17.27;15.48;;;;;;;;;;10584845;28;20036;-87
2021/01/02 12:57:45;;;;;;;13.32;11.95;;;;;;;;;;10584020;28;20055;-89
2021/01/02 13:02:46;;;;;;;20.38;16.75;;;;;;;;;;10585378;28;20127;-88
2021/01/02 13:07:47;;;;;;;17.55;15.65;;;;;;;;;;10581820;28;20035;-88
2021/01/02 13:12:48;;;;;;;17.83;14.30;;;;;;;;;;10583369;28;20036;-89
2021/01/02 13:17:50;;;;;;;20.83;18.20;;;;;;;;;;10582689;28;20046;-89
2021/01/02 13:22:51;;;;;;;17.80;15.90;;;;;;;;;;10584592;28;20032;-88
2021/01/02 13:27:52;;;;;;;14.77;13.13;;;;;;;;;;10583973;28;20027;-88
2021/01/02 13:32:53;;;;;;;17.40;14.93;;;;;;;;;;10582334;28;20482;-89
2021/01/02 13:37:54;;;;;;;13.68;12.27;;;;;;;;;;10578768;28;20028;-88
2021/01/02 13:42:55;;;;;;;12.88;10.95;;;;;;;;;;10584268;28;20124;-88
2021/01/02 13:47:56;;;;;;;19.65;17.52;;;;;;;;;;10583506;28;20038;-88
2021/01/02 13:52:57;;;;;;;16.65;14.88;;;;;;;;;;10586373;28;20031;-88
2021/01/02 13:57:58;;;;;;;18.98;17.00;;;;;;;;;;10584949;28;20043;-88
2021/01/02 14:03:02;;;;;;;21.83;18.50;;;;;;;;;;10586704;28;20043;-88
2021/01/02 14:08:06;;;;;;;13.25;11.55;;;;;;;;;;10587165;28;20035;-89
2021/01/02 14:13:07;;;;;;;13.77;12.20;;;;;;;;;;10572364;28;20077;-89
2021/01/02 14:18:08;;;;;;;15.88;12.98;;;;;;;;;;10588645;28;20070;-88
2021/01/02 14:23:09;;;;;;;12.85;11.52;;;;;;;;;;10588778;28;20031;-87
2021/01/02 14:28:10;;;;;;;17.83;15.93;;;;;;;;;;10585050;28;20039;-88
2021/01/02 14:33:11;;;;;;;12.35;11.02;;;;;;;;;;10585058;28;20042;-88
2021/01/02 14:38:12;;;;;;;14.27;12.85;;;;;;;;;;10585171;28;20078;-88
2021/01/02 14:43:13;;;;;;;16.48;14.75;;;;;;;;;;10585613;28;20065;-88
2021/01/02 14:48:15;;;;;;;14.93;13.35;;;;;;;;;;10584978;28;20397;-89
2021/01/02 14:53:16;;;;;;;10.50;9.35;;;;;;;;;;10585868;28;20061;-88
2021/01/02 14:58:17;;;;;;;15.30;13.68;;;;;;;;;;10585322;28;20043;-88
2021/01/02 15:03:18;;;;;;;13.30;11.90;;;;;;;;;;10584458;28;20038;-89
2021/01/02 15:08:19;;;;;;;18.73;16.75;;;;;;;;;;10584915;28;20379;-87
2021/01/02 15:13:20;;;;;;;13.57;12.15;;;;;;;;;;10610708;27;20035;-87
2021/01/02 15:18:21;;;;;;;11.18;9.98;;;;;;;;;;10614139;27;20036;-88
2021/01/02 15:23:22;;;;;;;8.43;7.32;;;;;;;;;;10596507;28;20465;-88
2021/01/02 15:28:24;;;;;;;10.88;9.52;;;;;;;;;;10583678;28;20035;-89
2021/01/02 15:33:25;;;;;;;15.00;12.68;;;;;;;;;;10583277;28;20056;-89
2021/01/02 15:38:26;;;;;;;12.65;11.35;;;;;;;;;;10588289;28;20032;-88
2021/01/02 15:43:30;;;;;;;18.60;16.42;;;;;;;;;;10584948;28;20028;-88
2021/01/02 15:48:31;;;;;;;15.55;13.95;;;;;;;;;;10583716;28;20040;-88
2021/01/02 15:53:32;;;;;;;13.00;11.70;;;;;;;;;;10585489;28;20035;-88
2021/01/02 15:58:33;;;;;;;17.00;15.30;;;;;;;;;;10590279;28;20042;-88
2021/01/02 16:03:34;;;;;;;13.80;12.25;;;;;;;;;;10583454;28;20036;-88
2021/01/02 16:08:35;;;;;;;17.90;15.88;;;;;;;;;;10584066;28;20027;-88
2021/01/02 16:13:36;;;;;;;10.90;9.65;;;;;;;;;;10599639;27;20032;-88
2021/01/02 16:18:37;;;;;;;15.93;14.23;;;;;;;;;;10584811;28;20520;-89
2021/01/02 16:23:39;;;;;;;18.60;16.70;;;;;;;;;;10589108;28;20077;-89
2021/01/02 16:28:40;;;;;;;12.23;11.00;;;;;;;;;;10593118;28;20051;-88
2021/01/02 16:33:43;;;;;;;12.15;10.88;;;;;;;;;;10589546;28;20081;-89
2021/01/02 16:38:44;;;;;;;10.77;9.52;;;;;;;;;;10587266;28;20067;-88
2021/01/02 16:43:45;;;;;;;15.23;13.65;;;;;;;;;;10589350;28;20036;-89
2021/01/02 16:48:53;;;;;;;11.68;10.13;;;;;;;;;;10588559;28;20032;-89
2021/01/02 16:53:55;;;;;;;10.07;8.73;;;;;;;;;;10592285;28;20080;-88
2021/01/02 16:58:57;;;;;;;16.23;14.52;;;;;;;;;;10592976;28;20066;-89
2021/01/02 17:03:58;;;;;;;12.05;10.23;;;;;;;;;;10591786;28;20119;-88
2021/01/02 17:09:01;;;;;;;18.92;16.92;;;;;;;;;;10587993;28;20043;-87
2021/01/02 17:14:02;;;;;;;13.70;12.25;;;;;;;;;;10594715;28;20043;-88
2021/01/02 17:19:04;;;;;;;13.77;12.38;;;;;;;;;;10584054;28;20240;-89
2021/01/02 17:24:05;;;;;;;12.90;11.60;;;;;;;;;;10576370;28;20067;-89
2021/01/02 17:29:08;;;;;;;14.23;12.75;;;;;;;;;;10583363;28;20084;-89
2021/01/02 17:34:10;;;;;;;12.88;11.57;;;;;;;;;;10572970;28;20069;-90
2021/01/02 17:39:13;;;;;;;16.70;15.00;;;;;;;;;;10573376;28;20066;-89
2021/01/02 17:44:14;;;;;;;12.57;11.27;;;;;;;;;;10573252;28;20057;-89
2021/01/02 17:49:17;;;;;;;11.90;10.68;;;;;;;;;;10572695;28;20042;-89
2021/01/02 17:54:20;;;;;;;13.75;12.35;;;;;;;;;;10573337;28;20067;-89
2021/01/02 17:59:21;;;;;;;11.52;10.32;;;;;;;;;;10570820;28;20063;-89
2021/01/02 18:04:23;;;;;;;14.10;12.70;;;;;;;;;;10584092;28;20042;-90
2021/01/02 18:09:24;;;;;;;13.95;12.43;;;;;;;;;;10596248;28;20092;-88
2021/01/02 18:14:29;;;;;;;15.63;13.75;;;;;;;;;;10569358;28;20154;-89
2021/01/02 18:19:30;;;;;;;12.48;11.18;;;;;;;;;;10570015;28;20032;-89
2021/01/02 18:24:32;;;;;;;15.07;13.48;;;;;;;;;;10576498;28;20028;-90
2021/01/02 18:29:33;;;;;;;15.18;13.57;;;;;;;;;;10573402;28;20481;-90
2021/01/02 18:34:35;;;;;;;14.38;12.88;;;;;;;;;;10570605;28;20095;-90
2021/01/02 18:39:36;;;;;;;14.05;12.55;;;;;;;;;;10568184;28;20486;-90
2021/01/02 18:44:37;;;;;;;16.48;14.10;;;;;;;;;;10567529;28;20031;-88
2021/01/02 18:49:38;;;;;;;17.05;15.00;;;;;;;;;;10573093;28;20096;-90
2021/01/02 18:54:39;;;;;;;12.35;11.13;;;;;;;;;;10573443;28;20200;-88
2021/01/02 18:59:44;;;;;;;14.90;13.20;;;;;;;;;;10586813;28;20070;-89
2021/01/02 19:04:58;;;;;;;14.70;13.13;;;;;;;;;;10578383;28;20039;-88
2021/01/02 19:09:59;;;;;;;14.52;13.02;;;;;;;;;;10595660;28;20043;-90
2021/01/02 19:15:07;;;;;;;13.00;11.70;;;;;;;;;;10574571;28;20521;-90
2021/01/02 19:20:08;;;;;;;12.75;11.38;;;;;;;;;;10565058;28;20032;-89
2021/01/02 19:25:10;;;;;;;15.68;13.25;;;;;;;;;;10584998;28;20020;-90
2021/01/02 19:30:12;;;;;;;16.15;14.48;;;;;;;;;;10569832;28;20035;-88
2021/01/02 19:35:13;;;;;;;14.10;12.55;;;;;;;;;;10568326;28;20480;-89
2021/01/02 19:40:15;;;;;;;16.27;14.25;;;;;;;;;;10567424;28;20474;-88
2021/01/02 19:45:16;;;;;;;15.40;13.75;;;;;;;;;;10577227;28;20019;-88
2021/01/02 19:50:17;;;;;;;15.23;13.45;;;;;;;;;;10574722;28;20038;-88
2021/01/02 19:55:18;;;;;;;15.90;14.25;;;;;;;;;;10578566;28;20044;-89
2021/01/02 20:00:19;;;;;;;16.48;14.73;;;;;;;;;;10577328;28;20036;-89
2021/01/02 20:05:20;;;;;;;16.85;15.10;;;;;;;;;;10594122;28;20123;-89
2021/01/02 20:10:23;;;;;;;20.05;17.60;;;;;;;;;;10576427;28;20195;-89
2021/01/02 20:15:24;;;;;;;16.48;14.77;;;;;;;;;;10593869;28;20028;-88
2021/01/02 20:20:25;;;;;;;19.35;17.40;;;;;;;;;;10576675;28;20477;-91
2021/01/02 20:25:28;;;;;;;15.18;13.63;;;;;;;;;;10584265;28;20024;-90
2021/01/02 20:30:29;;;;;;;15.07;13.48;;;;;;;;;;10611313;27;20041;-88
2021/01/02 20:35:30;;;;;;;15.68;14.05;;;;;;;;;;10619520;27;21685;-90
2021/01/02 20:40:31;;;;;;;18.27;16.45;;;;;;;;;;10618774;27;20059;-90
2021/01/02 20:45:32;;;;;;;19.73;16.85;;;;;;;;;;10588030;28;20039;-90
2021/01/02 20:50:33;;;;;;;12.25;11.02;;;;;;;;;;10574630;28;20032;-89
2021/01/02 20:55:34;;;;;;;20.90;18.70;;;;;;;;;;10572598;28;20089;-89
2021/01/02 21:00:35;;;;;;;15.18;13.57;;;;;;;;;;10589240;28;20046;-90
2021/01/02 21:05:36;;;;;;;18.00;15.45;;;;;;;;;;10575766;28;20363;-89
2021/01/02 21:10:37;;;;;;;14.10;12.68;;;;;;;;;;10584821;28;20177;-91
2021/01/02 21:15:38;;;;;;;15.98;14.27;;;;;;;;;;10575485;28;20564;-89
2021/01/02 21:20:39;;;;;;;15.80;14.23;;;;;;;;;;10575234;28;20039;-89
2021/01/02 21:26:03;;;;;;;14.50;12.82;;;;;;;;;;10574015;28;20431;-88
2021/01/02 21:31:05;;;;;;;15.77;14.18;;;;;;;;;;10582391;28;20547;-88
2021/01/02 21:36:10;;;;;;;13.82;12.38;;;;;;;;;;10571001;28;20038;-89
2021/01/02 21:41:22;;;;;;;13.50;12.10;;;;;;;;;;10570032;28;20396;-90
2021/01/02 21:46:24;;;;;;;15.05;13.50;;;;;;;;;;10572003;28;20044;-89
2021/01/02 21:51:26;;;;;;;16.10;14.38;;;;;;;;;;10569343;28;20030;-90
2021/01/02 21:56:28;;;;;;;16.63;14.82;;;;;;;;;;10569923;27;20077;-89
2021/01/02 22:01:29;;;;;;;15.57;13.88;;;;;;;;;;10570798;28;20076;-90
2021/01/02 22:06:30;;;;;;;13.55;12.00;;;;;;;;;;10570349;28;20513;-89
2021/01/02 22:11:31;;;;;;;12.90;11.60;;;;;;;;;;10587502;28;20040;-89
2021/01/02 22:16:32;;;;;;;17.85;15.73;;;;;;;;;;10568448;28;20036;-89
2021/01/02 22:21:37;;;;;;;17.30;15.50;;;;;;;;;;10567642;28;20028;-90
2021/01/02 22:26:38;;;;;;;14.40;12.90;;;;;;;;;;10568901;28;20032;-89
2021/01/02 22:31:39;;;;;;;12.82;11.52;;;;;;;;;;10568928;28;20046;-91
2021/01/02 22:36:40;;;;;;;13.70;12.18;;;;;;;;;;10568111;28;20074;-88
2021/01/02 22:41:41;;;;;;;13.02;11.73;;;;;;;;;;10567895;28;20054;-89
2021/01/02 22:46:42;;;;;;;17.02;15.25;;;;;;;;;;10571029;28;20035;-89
2021/01/02 22:51:43;;;;;;;12.40;11.18;;;;;;;;;;10568544;28;20036;-89
2021/01/02 22:56:51;;;;;;;15.25;13.32;;;;;;;;;;10569166;27;20051;-89
2021/01/02 23:01:52;;;;;;;14.32;12.90;;;;;;;;;;10570085;28;20031;-89
2021/01/02 23:06:53;;;;;;;14.43;13.02;;;;;;;;;;10592944;28;20050;-87
2021/01/02 23:11:55;;;;;;;15.15;13.68;;;;;;;;;;10609712;27;20038;-89
2021/01/02 23:17:31;;;;;;;12.75;11.55;;;;;;;;;;10562466;22;20045;-89
